sensor_id;sensor_type;location;lat;lon;timestamp;pressure;altitude;pressure_sealevel;temperature;humidity
43298;BME280;28892;55.640;37.532;2023-06-10T00:00:51;99124.22;;;15.28;43.53
43298;BME280;28892;55.640;37.532;2023-06-10T00:03:20;99139.66;;;15.26;43.48
43298;BME280;28892;55.640;37.532;2023-06-10T00:05:49;99147.84;;;15.31;43.51
43298;BME280;28892;55.640;37.532;2023-06-10T00:08:17;99151.72;;;15.35;43.75
43298;BME280;28892;55.640;37.532;2023-06-10T00:10:45;99150.09;;;15.34;43.56
43298;BME280;28892;55.640;37.532;2023-06-10T00:13:11;99139.34;;;15.41;43.22
43298;BME280;28892;55.640;37.532;2023-06-10T00:15:37;99141.88;;;15.29;43.58
43298;BME280;28892;55.640;37.532;2023-06-10T00:18:04;99141.72;;;15.24;43.36
43298;BME280;28892;55.640;37.532;2023-06-10T00:20:35;99143.66;;;15.10;43.76
43298;BME280;28892;55.640;37.532;2023-06-10T00:23:09;99143.56;;;15.23;43.68
43298;BME280;28892;55.640;37.532;2023-06-10T00:25:35;99157.44;;;15.00;44.12
43298;BME280;28892;55.640;37.532;2023-06-10T00:28:01;99159.97;;;14.88;44.44
43298;BME280;28892;55.640;37.532;2023-06-10T00:30:29;99161.84;;;14.81;44.74
43298;BME280;28892;55.640;37.532;2023-06-10T00:32:55;99150.97;;;14.83;44.45
43298;BME280;28892;55.640;37.532;2023-06-10T00:35:21;99171.09;;;14.85;44.65
43298;BME280;28892;55.640;37.532;2023-06-10T00:37:47;99163.47;;;14.82;44.74
43298;BME280;28892;55.640;37.532;2023-06-10T00:40:14;99177.03;;;14.87;44.73
43298;BME280;28892;55.640;37.532;2023-06-10T00:42:40;99177.19;;;14.99;44.10
43298;BME280;28892;55.640;37.532;2023-06-10T00:45:06;99180.72;;;14.93;44.41
43298;BME280;28892;55.640;37.532;2023-06-10T00:47:36;99177.81;;;14.94;44.59
43298;BME280;28892;55.640;37.532;2023-06-10T00:50:03;99188.47;;;15.08;44.00
43298;BME280;28892;55.640;37.532;2023-06-10T00:52:30;99187.13;;;14.85;44.24
43298;BME280;28892;55.640;37.532;2023-06-10T00:54:57;99190.75;;;14.98;44.24
43298;BME280;28892;55.640;37.532;2023-06-10T00:57:24;99207.81;;;14.97;44.43
43298;BME280;28892;55.640;37.532;2023-06-10T00:59:51;99197.94;;;14.97;43.92
43298;BME280;28892;55.640;37.532;2023-06-10T01:02:17;99215.19;;;14.94;44.10
43298;BME280;28892;55.640;37.532;2023-06-10T01:04:43;99201.47;;;14.91;43.86
43298;BME280;28892;55.640;37.532;2023-06-10T01:10:05;99211.88;;;15.06;43.90
43298;BME280;28892;55.640;37.532;2023-06-10T01:12:37;99212.53;;;14.94;44.22
43298;BME280;28892;55.640;37.532;2023-06-10T01:15:06;99201.72;;;14.76;44.45
43298;BME280;28892;55.640;37.532;2023-06-10T01:17:33;99214.63;;;14.79;44.31
43298;BME280;28892;55.640;37.532;2023-06-10T01:20:08;99219.56;;;14.82;44.59
43298;BME280;28892;55.640;37.532;2023-06-10T01:22:37;99209.91;;;14.81;44.67
43298;BME280;28892;55.640;37.532;2023-06-10T01:25:12;99215.25;;;14.81;44.55
43298;BME280;28892;55.640;37.532;2023-06-10T01:27:48;99227.16;;;14.85;44.94
43298;BME280;28892;55.640;37.532;2023-06-10T01:30:18;99218.34;;;14.78;45.13
43298;BME280;28892;55.640;37.532;2023-06-10T01:32:51;99228.16;;;14.84;44.97
43298;BME280;28892;55.640;37.532;2023-06-10T01:35:18;99220.19;;;14.77;45.24
43298;BME280;28892;55.640;37.532;2023-06-10T01:37:48;99231.88;;;14.70;45.73
43298;BME280;28892;55.640;37.532;2023-06-10T01:40:16;99205.63;;;14.66;45.30
43298;BME280;28892;55.640;37.532;2023-06-10T01:42:42;99232.72;;;14.63;45.83
43298;BME280;28892;55.640;37.532;2023-06-10T01:45:08;99225.72;;;14.62;45.77
43298;BME280;28892;55.640;37.532;2023-06-10T01:47:35;99228.81;;;14.66;45.63
43298;BME280;28892;55.640;37.532;2023-06-10T01:50:01;99230.06;;;14.63;45.77
43298;BME280;28892;55.640;37.532;2023-06-10T01:52:34;99225.34;;;14.65;45.63
43298;BME280;28892;55.640;37.532;2023-06-10T01:55:04;99231.69;;;14.64;45.86
43298;BME280;28892;55.640;37.532;2023-06-10T01:57:30;99220.81;;;14.59;45.86
43298;BME280;28892;55.640;37.532;2023-06-10T01:59:56;99232.34;;;14.53;46.36
43298;BME280;28892;55.640;37.532;2023-06-10T02:02:22;99240.50;;;14.65;46.21
43298;BME280;28892;55.640;37.532;2023-06-10T02:04:48;99249.56;;;14.57;46.49
43298;BME280;28892;55.640;37.532;2023-06-10T02:07:14;99242.19;;;14.46;46.51
43298;BME280;28892;55.640;37.532;2023-06-10T02:09:40;99258.19;;;14.52;46.84
43298;BME280;28892;55.640;37.532;2023-06-10T02:12:06;99254.09;;;14.43;47.25
43298;BME280;28892;55.640;37.532;2023-06-10T02:14:34;99259.22;;;14.45;46.84
43298;BME280;28892;55.640;37.532;2023-06-10T02:17:01;99260.06;;;14.32;47.58
43298;BME280;28892;55.640;37.532;2023-06-10T02:19:27;99248.34;;;14.19;47.81
43298;BME280;28892;55.640;37.532;2023-06-10T02:21:53;99254.94;;;14.44;47.00
43298;BME280;28892;55.640;37.532;2023-06-10T02:24:20;99254.53;;;14.27;47.40
43298;BME280;28892;55.640;37.532;2023-06-10T02:26:46;99260.25;;;14.23;47.65
43298;BME280;28892;55.640;37.532;2023-06-10T02:29:13;99264.56;;;14.04;48.52
43298;BME280;28892;55.640;37.532;2023-06-10T02:31:42;99258.38;;;13.83;48.94
43298;BME280;28892;55.640;37.532;2023-06-10T02:34:22;99256.91;;;13.81;49.07
43298;BME280;28892;55.640;37.532;2023-06-10T02:36:51;99275.22;;;13.91;48.64
43298;BME280;28892;55.640;37.532;2023-06-10T02:39:34;99264.53;;;13.84;48.81
43298;BME280;28892;55.640;37.532;2023-06-10T02:42:12;99271.94;;;13.95;48.40
43298;BME280;28892;55.640;37.532;2023-06-10T02:44:38;99270.91;;;13.83;48.84
43298;BME280;28892;55.640;37.532;2023-06-10T02:47:18;99272.53;;;13.97;48.37
43298;BME280;28892;55.640;37.532;2023-06-10T02:49:54;99272.75;;;13.96;48.27
43298;BME280;28892;55.640;37.532;2023-06-10T02:52:46;99282.41;;;14.04;48.52
43298;BME280;28892;55.640;37.532;2023-06-10T02:56:16;99286.69;;;13.91;48.88
43298;BME280;28892;55.640;37.532;2023-06-10T02:59:09;99278.50;;;13.93;48.54
43298;BME280;28892;55.640;37.532;2023-06-10T03:02:06;99295.50;;;13.92;48.55
43298;BME280;28892;55.640;37.532;2023-06-10T03:04:49;99282.34;;;13.77;48.43
43298;BME280;28892;55.640;37.532;2023-06-10T03:07:28;99286.84;;;13.76;48.46
43298;BME280;28892;55.640;37.532;2023-06-10T03:14:47;99301.28;;;13.95;47.51
43298;BME280;28892;55.640;37.532;2023-06-10T03:21:19;99287.28;;;13.87;47.44
43298;BME280;28892;55.640;37.532;2023-06-10T03:23:59;99295.53;;;14.05;47.28
43298;BME280;28892;55.640;37.532;2023-06-10T03:26:36;99289.56;;;13.90;47.41
43298;BME280;28892;55.640;37.532;2023-06-10T03:29:06;99294.47;;;13.79;47.78
43298;BME280;28892;55.640;37.532;2023-06-10T03:31:41;99299.19;;;13.77;47.61
43298;BME280;28892;55.640;37.532;2023-06-10T03:34:13;99301.03;;;13.83;47.31
43298;BME280;28892;55.640;37.532;2023-06-10T03:37:08;99307.63;;;13.94;47.06
43298;BME280;28892;55.640;37.532;2023-06-10T03:43:15;99310.31;;;14.01;46.76
43298;BME280;28892;55.640;37.532;2023-06-10T03:45:56;99308.66;;;13.93;46.99
43298;BME280;28892;55.640;37.532;2023-06-10T03:48:28;99317.88;;;14.04;47.20
43298;BME280;28892;55.640;37.532;2023-06-10T03:50:59;99311.94;;;14.02;46.98
43298;BME280;28892;55.640;37.532;2023-06-10T03:53:31;99311.97;;;14.22;46.34
43298;BME280;28892;55.640;37.532;2023-06-10T03:55:57;99321.19;;;14.13;46.64
43298;BME280;28892;55.640;37.532;2023-06-10T03:58:29;99319.34;;;14.20;46.54
43298;BME280;28892;55.640;37.532;2023-06-10T04:04:28;99317.09;;;14.24;46.17
43298;BME280;28892;55.640;37.532;2023-06-10T04:08:05;99321.22;;;14.53;46.50
43298;BME280;28892;55.640;37.532;2023-06-10T04:10:38;99313.41;;;14.32;46.73
43298;BME280;28892;55.640;37.532;2023-06-10T04:13:04;99324.69;;;14.41;46.17
43298;BME280;28892;55.640;37.532;2023-06-10T04:15:38;99322.25;;;14.46;46.11
43298;BME280;28892;55.640;37.532;2023-06-10T04:18:10;99316.91;;;14.59;45.54
43298;BME280;28892;55.640;37.532;2023-06-10T04:20:42;99321.00;;;14.69;45.33
43298;BME280;28892;55.640;37.532;2023-06-10T04:23:29;99326.34;;;14.82;45.42
43298;BME280;28892;55.640;37.532;2023-06-10T04:26:24;99323.50;;;14.84;44.98
43298;BME280;28892;55.640;37.532;2023-06-10T04:32:57;99324.88;;;15.06;44.00
43298;BME280;28892;55.640;37.532;2023-06-10T04:35:24;99323.44;;;15.11;44.41
43298;BME280;28892;55.640;37.532;2023-06-10T04:37:53;99323.41;;;15.31;44.21
43298;BME280;28892;55.640;37.532;2023-06-10T04:40:33;99328.56;;;15.78;43.87
43298;BME280;28892;55.640;37.532;2023-06-10T04:43:12;99332.69;;;15.67;43.40
43298;BME280;28892;55.640;37.532;2023-06-10T04:45:55;99328.03;;;16.01;42.65
43298;BME280;28892;55.640;37.532;2023-06-10T04:48:26;99333.31;;;16.15;42.43
43298;BME280;28892;55.640;37.532;2023-06-10T04:51:13;99336.59;;;16.17;41.68
43298;BME280;28892;55.640;37.532;2023-06-10T04:54:02;99336.94;;;16.27;41.09
43298;BME280;28892;55.640;37.532;2023-06-10T04:56:31;99330.09;;;16.31;41.10
43298;BME280;28892;55.640;37.532;2023-06-10T05:07:32;99345.34;;;16.82;40.32
43298;BME280;28892;55.640;37.532;2023-06-10T05:09:58;99350.81;;;16.68;40.39
43298;BME280;28892;55.640;37.532;2023-06-10T05:12:24;99344.97;;;16.78;40.34
43298;BME280;28892;55.640;37.532;2023-06-10T05:14:50;99351.09;;;16.85;40.53
43298;BME280;28892;55.640;37.532;2023-06-10T05:17:15;99353.50;;;16.94;40.15
43298;BME280;28892;55.640;37.532;2023-06-10T05:23:27;99350.94;;;17.43;39.58
43298;BME280;28892;55.640;37.532;2023-06-10T05:25:53;99358.69;;;17.33;39.57
43298;BME280;28892;55.640;37.532;2023-06-10T05:28:19;99357.72;;;17.45;39.33
43298;BME280;28892;55.640;37.532;2023-06-10T05:30:46;99360.25;;;17.40;38.72
43298;BME280;28892;55.640;37.532;2023-06-10T05:33:11;99362.34;;;17.57;38.58
43298;BME280;28892;55.640;37.532;2023-06-10T05:35:37;99353.38;;;17.63;38.31
43298;BME280;28892;55.640;37.532;2023-06-10T05:38:14;99361.22;;;17.65;38.58
43298;BME280;28892;55.640;37.532;2023-06-10T05:40:43;99354.69;;;17.91;38.57
43298;BME280;28892;55.640;37.532;2023-06-10T05:43:09;99365.25;;;18.05;37.95
43298;BME280;28892;55.640;37.532;2023-06-10T05:45:38;99372.53;;;18.16;37.58
43298;BME280;28892;55.640;37.532;2023-06-10T05:48:06;99375.88;;;18.42;37.18
43298;BME280;28892;55.640;37.532;2023-06-10T05:50:37;99369.59;;;18.48;37.63
43298;BME280;28892;55.640;37.532;2023-06-10T05:53:27;99354.69;;;18.76;36.55
43298;BME280;28892;55.640;37.532;2023-06-10T05:55:52;99357.72;;;18.68;36.23
43298;BME280;28892;55.640;37.532;2023-06-10T05:58:30;99360.50;;;18.61;36.14
43298;BME280;28892;55.640;37.532;2023-06-10T06:00:56;99348.84;;;18.79;36.87
43298;BME280;28892;55.640;37.532;2023-06-10T06:03:22;99360.31;;;18.87;36.20
43298;BME280;28892;55.640;37.532;2023-06-10T06:05:47;99361.81;;;19.06;35.58
43298;BME280;28892;55.640;37.532;2023-06-10T06:08:16;99371.88;;;18.99;35.51
43298;BME280;28892;55.640;37.532;2023-06-10T06:10:47;99363.00;;;18.87;35.73
43298;BME280;28892;55.640;37.532;2023-06-10T06:17:45;99376.53;;;19.16;35.29
43298;BME280;28892;55.640;37.532;2023-06-10T06:20:32;99366.00;;;18.90;35.53
43298;BME280;28892;55.640;37.532;2023-06-10T06:23:05;99371.06;;;18.01;36.40
43298;BME280;28892;55.640;37.532;2023-06-10T06:25:57;99364.84;;;18.20;36.49
43298;BME280;28892;55.640;37.532;2023-06-10T06:28:26;99376.59;;;18.49;36.48
43298;BME280;28892;55.640;37.532;2023-06-10T06:34:30;99384.34;;;19.41;34.23
43298;BME280;28892;55.640;37.532;2023-06-10T06:37:01;99380.94;;;19.58;34.86
43298;BME280;28892;55.640;37.532;2023-06-10T06:39:47;99388.09;;;19.52;34.98
43298;BME280;28892;55.640;37.532;2023-06-10T06:42:15;99389.34;;;19.61;34.29
43298;BME280;28892;55.640;37.532;2023-06-10T06:45:36;99387.47;;;19.62;34.24
43298;BME280;28892;55.640;37.532;2023-06-10T06:48:12;99398.50;;;19.36;34.33
43298;BME280;28892;55.640;37.532;2023-06-10T06:50:38;99396.03;;;18.87;34.70
43298;BME280;28892;55.640;37.532;2023-06-10T06:56:05;99402.81;;;18.90;34.92
43298;BME280;28892;55.640;37.532;2023-06-10T06:58:35;99392.31;;;19.12;34.31
43298;BME280;28892;55.640;37.532;2023-06-10T07:01:11;99390.56;;;19.30;34.76
43298;BME280;28892;55.640;37.532;2023-06-10T07:03:44;99393.56;;;19.45;34.52
43298;BME280;28892;55.640;37.532;2023-06-10T07:06:16;99396.69;;;19.13;34.25
43298;BME280;28892;55.640;37.532;2023-06-10T07:08:49;99415.66;;;18.76;34.88
43298;BME280;28892;55.640;37.532;2023-06-10T07:11:37;99410.34;;;18.45;35.74
43298;BME280;28892;55.640;37.532;2023-06-10T07:14:16;99424.16;;;18.61;35.62
43298;BME280;28892;55.640;37.532;2023-06-10T07:16:50;99409.34;;;18.94;35.37
43298;BME280;28892;55.640;37.532;2023-06-10T07:19:16;99419.13;;;19.19;35.00
43298;BME280;28892;55.640;37.532;2023-06-10T07:22:49;99401.06;;;19.67;33.92
43298;BME280;28892;55.640;37.532;2023-06-10T07:25:21;99417.47;;;19.42;33.73
43298;BME280;28892;55.640;37.532;2023-06-10T07:27:46;99402.13;;;19.54;33.51
43298;BME280;28892;55.640;37.532;2023-06-10T07:30:33;99418.41;;;20.00;33.32
43298;BME280;28892;55.640;37.532;2023-06-10T07:32:59;99428.13;;;19.89;33.71
43298;BME280;28892;55.640;37.532;2023-06-10T07:35:26;99419.41;;;20.11;33.79
43298;BME280;28892;55.640;37.532;2023-06-10T07:37:52;99405.31;;;19.80;33.86
43298;BME280;28892;55.640;37.532;2023-06-10T07:41:01;99432.28;;;19.56;33.94
43298;BME280;28892;55.640;37.532;2023-06-10T07:43:45;99434.88;;;19.03;34.09
43298;BME280;28892;55.640;37.532;2023-06-10T07:46:11;99434.66;;;18.62;34.21
43298;BME280;28892;55.640;37.532;2023-06-10T07:48:43;99427.03;;;18.47;34.30
43298;BME280;28892;55.640;37.532;2023-06-10T07:51:23;99428.16;;;18.09;34.38
43298;BME280;28892;55.640;37.532;2023-06-10T07:53:54;99432.03;;;18.43;34.46
43298;BME280;28892;55.640;37.532;2023-06-10T07:56:20;99427.00;;;18.90;33.07
43298;BME280;28892;55.640;37.532;2023-06-10T07:58:50;99421.44;;;19.27;32.45
43298;BME280;28892;55.640;37.532;2023-06-10T08:01:16;99437.66;;;19.68;32.05
43298;BME280;28892;55.640;37.532;2023-06-10T08:03:42;99423.03;;;20.17;31.93
43298;BME280;28892;55.640;37.532;2023-06-10T08:06:08;99419.78;;;20.32;31.54
43298;BME280;28892;55.640;37.532;2023-06-10T08:08:36;99416.22;;;20.14;30.97
43298;BME280;28892;55.640;37.532;2023-06-10T08:11:07;99425.00;;;20.21;31.50
43298;BME280;28892;55.640;37.532;2023-06-10T08:13:36;99425.44;;;20.47;31.05
43298;BME280;28892;55.640;37.532;2023-06-10T08:16:06;99434.59;;;20.46;30.42
43298;BME280;28892;55.640;37.532;2023-06-10T08:18:38;99438.84;;;20.13;30.57
43298;BME280;28892;55.640;37.532;2023-06-10T08:21:10;99436.84;;;20.08;30.79
43298;BME280;28892;55.640;37.532;2023-06-10T08:23:37;99452.91;;;19.91;31.01
43298;BME280;28892;55.640;37.532;2023-06-10T08:26:06;99432.59;;;19.95;31.47
43298;BME280;28892;55.640;37.532;2023-06-10T08:28:50;99454.81;;;19.79;32.15
43298;BME280;28892;55.640;37.532;2023-06-10T08:31:49;99466.19;;;19.45;33.10
43298;BME280;28892;55.640;37.532;2023-06-10T08:34:53;99467.50;;;19.43;33.19
43298;BME280;28892;55.640;37.532;2023-06-10T08:38:00;99464.06;;;18.99;34.40
43298;BME280;28892;55.640;37.532;2023-06-10T08:41:05;99466.16;;;18.97;34.87
43298;BME280;28892;55.640;37.532;2023-06-10T08:46:31;99462.13;;;19.43;32.03
43298;BME280;28892;55.640;37.532;2023-06-10T08:49:05;99458.00;;;19.76;30.96
43298;BME280;28892;55.640;37.532;2023-06-10T08:52:57;99458.03;;;20.46;30.94
43298;BME280;28892;55.640;37.532;2023-06-10T08:56:32;99454.22;;;20.01;30.07
43298;BME280;28892;55.640;37.532;2023-06-10T08:59:47;99460.03;;;20.38;30.38
43298;BME280;28892;55.640;37.532;2023-06-10T09:02:23;99457.63;;;19.96;29.79
43298;BME280;28892;55.640;37.532;2023-06-10T09:10:00;99471.91;;;20.84;29.14
43298;BME280;28892;55.640;37.532;2023-06-10T09:16:48;99488.06;;;22.14;25.98
43298;BME280;28892;55.640;37.532;2023-06-10T09:19:28;99465.47;;;21.98;26.15
43298;BME280;28892;55.640;37.532;2023-06-10T09:22:24;99446.97;;;22.34;25.85
43298;BME280;28892;55.640;37.532;2023-06-10T09:25:05;99467.22;;;22.09;26.51
43298;BME280;28892;55.640;37.532;2023-06-10T09:28:16;99470.00;;;21.53;26.54
43298;BME280;28892;55.640;37.532;2023-06-10T09:31:20;99466.50;;;21.35;26.73
43298;BME280;28892;55.640;37.532;2023-06-10T09:34:28;99477.53;;;21.33;26.78
43298;BME280;28892;55.640;37.532;2023-06-10T09:38:12;99481.84;;;21.69;26.20
43298;BME280;28892;55.640;37.532;2023-06-10T09:40:53;99483.75;;;21.90;26.09
43298;BME280;28892;55.640;37.532;2023-06-10T09:44:01;99477.41;;;21.62;25.70
43298;BME280;28892;55.640;37.532;2023-06-10T09:47:31;99479.59;;;21.43;26.00
43298;BME280;28892;55.640;37.532;2023-06-10T09:50:24;99482.91;;;21.68;25.69
43298;BME280;28892;55.640;37.532;2023-06-10T09:52:50;99482.88;;;21.28;26.02
43298;BME280;28892;55.640;37.532;2023-06-10T09:55:20;99472.97;;;20.83;26.54
43298;BME280;28892;55.640;37.532;2023-06-10T09:57:49;99481.44;;;20.74;26.72
43298;BME280;28892;55.640;37.532;2023-06-10T10:00:18;99471.16;;;20.71;27.01
43298;BME280;28892;55.640;37.532;2023-06-10T10:02:52;99488.56;;;20.51;27.64
43298;BME280;28892;55.640;37.532;2023-06-10T10:05:21;99489.22;;;20.59;27.94
43298;BME280;28892;55.640;37.532;2023-06-10T10:07:51;99477.25;;;20.66;27.63
43298;BME280;28892;55.640;37.532;2023-06-10T10:10:20;99481.56;;;20.50;27.49
43298;BME280;28892;55.640;37.532;2023-06-10T10:12:47;99493.16;;;20.22;27.69
43298;BME280;28892;55.640;37.532;2023-06-10T10:15:16;99483.25;;;19.99;28.44
43298;BME280;28892;55.640;37.532;2023-06-10T10:20:29;99487.72;;;19.69;29.13
43298;BME280;28892;55.640;37.532;2023-06-10T10:22:58;99501.88;;;19.52;29.30
43298;BME280;28892;55.640;37.532;2023-06-10T10:25:38;99495.22;;;19.67;28.97
43298;BME280;28892;55.640;37.532;2023-06-10T10:28:12;99498.22;;;19.71;29.56
43298;BME280;28892;55.640;37.532;2023-06-10T10:30:50;99491.78;;;20.07;28.58
43298;BME280;28892;55.640;37.532;2023-06-10T10:36:16;99491.19;;;21.10;26.90
43298;BME280;28892;55.640;37.532;2023-06-10T10:38:43;99498.00;;;20.66;26.96
43298;BME280;28892;55.640;37.532;2023-06-10T10:41:10;99482.78;;;20.89;27.41
43298;BME280;28892;55.640;37.532;2023-06-10T10:43:37;99489.72;;;21.19;26.26
43298;BME280;28892;55.640;37.532;2023-06-10T10:46:11;99492.19;;;21.77;26.26
43298;BME280;28892;55.640;37.532;2023-06-10T10:48:40;99482.13;;;21.89;25.51
43298;BME280;28892;55.640;37.532;2023-06-10T10:51:10;99487.13;;;22.03;25.87
43298;BME280;28892;55.640;37.532;2023-06-10T10:53:37;99486.66;;;21.49;26.33
43298;BME280;28892;55.640;37.532;2023-06-10T10:56:13;99492.91;;;21.33;26.78
43298;BME280;28892;55.640;37.532;2023-06-10T10:58:40;99497.69;;;20.79;26.99
43298;BME280;28892;55.640;37.532;2023-06-10T11:01:13;99491.84;;;20.54;27.12
43298;BME280;28892;55.640;37.532;2023-06-10T11:03:44;99497.41;;;20.06;27.45
43298;BME280;28892;55.640;37.532;2023-06-10T11:06:17;99503.16;;;19.74;27.89
43298;BME280;28892;55.640;37.532;2023-06-10T11:11:26;99502.34;;;19.37;27.95
43298;BME280;28892;55.640;37.532;2023-06-10T11:16:41;99506.22;;;19.65;27.57
43298;BME280;28892;55.640;37.532;2023-06-10T11:19:07;99495.81;;;19.33;28.14
43298;BME280;28892;55.640;37.532;2023-06-10T11:22:03;99490.03;;;19.77;27.46
43298;BME280;28892;55.640;37.532;2023-06-10T11:24:29;99498.25;;;19.94;27.84
43298;BME280;28892;55.640;37.532;2023-06-10T11:27:21;99500.69;;;19.96;28.13
43298;BME280;28892;55.640;37.532;2023-06-10T11:32:31;99505.72;;;19.21;28.74
43298;BME280;28892;55.640;37.532;2023-06-10T11:35:02;99506.66;;;19.03;29.35
43298;BME280;28892;55.640;37.532;2023-06-10T11:37:29;99517.06;;;18.80;29.17
43298;BME280;28892;55.640;37.532;2023-06-10T11:39:55;99501.84;;;18.74;28.78
43298;BME280;28892;55.640;37.532;2023-06-10T11:42:22;99521.88;;;19.33;28.11
43298;BME280;28892;55.640;37.532;2023-06-10T11:44:52;99504.78;;;19.99;27.15
43298;BME280;28892;55.640;37.532;2023-06-10T11:47:19;99512.84;;;20.10;26.71
43298;BME280;28892;55.640;37.532;2023-06-10T11:49:46;99501.81;;;20.24;26.58
43298;BME280;28892;55.640;37.532;2023-06-10T11:52:30;99495.78;;;20.34;26.37
43298;BME280;28892;55.640;37.532;2023-06-10T11:55:07;99510.44;;;20.38;25.13
43298;BME280;28892;55.640;37.532;2023-06-10T11:57:36;99503.53;;;20.59;24.57
43298;BME280;28892;55.640;37.532;2023-06-10T12:00:06;99506.31;;;20.64;25.37
43298;BME280;28892;55.640;37.532;2023-06-10T12:02:37;99485.81;;;20.63;24.20
43298;BME280;28892;55.640;37.532;2023-06-10T12:05:12;99491.41;;;20.45;25.29
43298;BME280;28892;55.640;37.532;2023-06-10T12:07:41;99498.66;;;20.15;25.61
43298;BME280;28892;55.640;37.532;2023-06-10T12:10:07;99483.84;;;19.77;26.46
43298;BME280;28892;55.640;37.532;2023-06-10T12:12:34;99509.13;;;19.76;26.65
43298;BME280;28892;55.640;37.532;2023-06-10T12:15:02;99503.03;;;19.33;26.90
43298;BME280;28892;55.640;37.532;2023-06-10T12:20:29;99505.84;;;19.26;27.67
43298;BME280;28892;55.640;37.532;2023-06-10T12:23:10;99500.25;;;18.85;27.79
43298;BME280;28892;55.640;37.532;2023-06-10T12:25:56;99501.78;;;18.93;28.03
43298;BME280;28892;55.640;37.532;2023-06-10T12:28:29;99511.69;;;18.80;27.24
43298;BME280;28892;55.640;37.532;2023-06-10T12:31:07;99505.34;;;19.05;27.50
43298;BME280;28892;55.640;37.532;2023-06-10T12:33:36;99492.91;;;18.92;27.65
43298;BME280;28892;55.640;37.532;2023-06-10T12:36:05;99522.81;;;18.84;27.63
43298;BME280;28892;55.640;37.532;2023-06-10T12:38:44;99509.47;;;18.77;27.42
43298;BME280;28892;55.640;37.532;2023-06-10T12:41:10;99499.31;;;18.79;27.88
43298;BME280;28892;55.640;37.532;2023-06-10T12:43:39;99501.88;;;18.86;27.53
43298;BME280;28892;55.640;37.532;2023-06-10T12:46:09;99486.78;;;18.73;27.37
43298;BME280;28892;55.640;37.532;2023-06-10T12:48:49;99483.66;;;18.76;27.88
43298;BME280;28892;55.640;37.532;2023-06-10T12:51:20;99488.88;;;18.71;28.13
43298;BME280;28892;55.640;37.532;2023-06-10T12:53:51;99489.28;;;18.56;28.03
43298;BME280;28892;55.640;37.532;2023-06-10T12:56:19;99496.97;;;18.52;27.85
43298;BME280;28892;55.640;37.532;2023-06-10T12:58:57;99485.47;;;18.64;28.09
43298;BME280;28892;55.640;37.532;2023-06-10T13:11:08;99513.22;;;18.76;28.97
43298;BME280;28892;55.640;37.532;2023-06-10T13:13:36;99507.56;;;18.66;28.98
43298;BME280;28892;55.640;37.532;2023-06-10T13:23:59;99504.19;;;18.40;29.26
43298;BME280;28892;55.640;37.532;2023-06-10T13:26:25;99508.59;;;18.34;29.52
43298;BME280;28892;55.640;37.532;2023-06-10T13:32:07;99507.31;;;18.37;29.51
43298;BME280;28892;55.640;37.532;2023-06-10T13:34:33;99503.69;;;18.31;29.12
43298;BME280;28892;55.640;37.532;2023-06-10T13:37:03;99511.84;;;18.55;28.96
43298;BME280;28892;55.640;37.532;2023-06-10T13:39:32;99512.66;;;18.55;29.11
43298;BME280;28892;55.640;37.532;2023-06-10T13:41:58;99506.44;;;18.43;29.31
43298;BME280;28892;55.640;37.532;2023-06-10T13:44:27;99496.81;;;18.35;29.23
43298;BME280;28892;55.640;37.532;2023-06-10T13:46:57;99512.81;;;18.42;28.93
43298;BME280;28892;55.640;37.532;2023-06-10T13:49:22;99507.03;;;18.26;29.42
43298;BME280;28892;55.640;37.532;2023-06-10T13:51:51;99515.38;;;18.37;28.91
43298;BME280;28892;55.640;37.532;2023-06-10T13:54:17;99501.00;;;18.12;29.41
43298;BME280;28892;55.640;37.532;2023-06-10T13:56:43;99506.97;;;17.96;28.90
43298;BME280;28892;55.640;37.532;2023-06-10T13:59:09;99509.34;;;17.85;28.95
43298;BME280;28892;55.640;37.532;2023-06-10T14:01:34;99501.22;;;17.92;29.12
43298;BME280;28892;55.640;37.532;2023-06-10T14:04:00;99522.69;;;17.92;29.30
43298;BME280;28892;55.640;37.532;2023-06-10T14:06:29;99503.06;;;17.92;29.70
43298;BME280;28892;55.640;37.532;2023-06-10T14:09:09;99513.59;;;17.93;29.93
43298;BME280;28892;55.640;37.532;2023-06-10T14:11:35;99525.28;;;17.99;29.83
43298;BME280;28892;55.640;37.532;2023-06-10T14:14:01;99526.19;;;17.93;30.36
43298;BME280;28892;55.640;37.532;2023-06-10T14:16:29;99529.09;;;17.91;29.86
43298;BME280;28892;55.640;37.532;2023-06-10T14:18:58;99534.69;;;17.90;29.74
43298;BME280;28892;55.640;37.532;2023-06-10T14:21:27;99521.03;;;17.72;29.59
43298;BME280;28892;55.640;37.532;2023-06-10T14:24:02;99525.34;;;17.73;29.65
43298;BME280;28892;55.640;37.532;2023-06-10T14:26:28;99522.66;;;17.73;29.94
43298;BME280;28892;55.640;37.532;2023-06-10T14:28:57;99523.81;;;17.84;29.63
43298;BME280;28892;55.640;37.532;2023-06-10T14:31:27;99526.50;;;18.03;29.32
43298;BME280;28892;55.640;37.532;2023-06-10T14:34:05;99514.28;;;18.07;28.97
43298;BME280;28892;55.640;37.532;2023-06-10T14:36:56;99506.72;;;18.53;28.62
43298;BME280;28892;55.640;37.532;2023-06-10T14:39:27;99508.63;;;18.15;29.00
43298;BME280;28892;55.640;37.532;2023-06-10T14:41:56;99506.38;;;18.12;29.39
43298;BME280;28892;55.640;37.532;2023-06-10T14:44:22;99517.41;;;18.04;29.00
43298;BME280;28892;55.640;37.532;2023-06-10T14:47:12;99527.53;;;18.02;29.48
43298;BME280;28892;55.640;37.532;2023-06-10T14:49:38;99512.41;;;17.89;29.41
43298;BME280;28892;55.640;37.532;2023-06-10T14:52:07;99515.16;;;18.01;29.87
43298;BME280;28892;55.640;37.532;2023-06-10T14:54:37;99503.19;;;18.04;29.67
43298;BME280;28892;55.640;37.532;2023-06-10T14:57:03;99519.56;;;17.95;29.58
43298;BME280;28892;55.640;37.532;2023-06-10T14:59:49;99529.78;;;18.24;29.75
43298;BME280;28892;55.640;37.532;2023-06-10T15:02:15;99529.56;;;18.07;29.89